Time;durP1;ratioP1;P1;durP2;ratioP2;P2;SDS_P1;SDS_P2;PMS_P1;PMS_P2;Temp;Humidity;BMP_temperature;BMP_pressure;BME280_temperature;BME280_humidity;BME280_pressure;Samples;Min_cycle;Max_cycle;Signal;HPM_P1;HPM_P2
2022/03/22 00:01:31;;;;;;;7.70;5.27;;;21.40;39.20;;;;;;5061263;27;91849;-72
2022/03/22 00:04:02;;;;;;;8.00;5.47;;;21.40;39.20;;;;;;5062459;27;89932;-71
2022/03/22 00:06:30;;;;;;;10.43;6.40;;;21.40;39.20;;;;;;5074302;27;91804;-72
2022/03/22 00:08:58;;;;;;;11.50;5.93;;;21.30;39.10;;;;;;5068174;27;88383;-72
2022/03/22 00:11:26;;;;;;;8.37;5.63;;;21.30;39.10;;;;;;5058644;27;89369;-71
2022/03/22 00:13:54;;;;;;;8.80;5.30;;;21.30;39.00;;;;;;5060369;27;89535;-72
2022/03/22 00:16:23;;;;;;;7.80;4.77;;;21.30;39.00;;;;;;5059826;27;89012;-72
2022/03/22 00:19:12;;;;;;;9.13;5.50;;;21.30;39.00;;;;;;5066168;27;88490;-72
2022/03/22 00:21:40;;;;;;;9.30;4.80;;;21.30;39.00;;;;;;5075204;27;89794;-72
2022/03/22 00:24:08;;;;;;;9.27;5.57;;;21.20;39.10;;;;;;5070091;27;89073;-72
2022/03/22 00:26:36;;;;;;;9.13;5.63;;;21.20;38.90;;;;;;5059338;27;90501;-72
2022/03/22 00:29:05;;;;;;;9.90;5.70;;;21.20;39.00;;;;;;5070943;27;88438;-72
2022/03/22 00:31:33;;;;;;;8.50;5.17;;;21.20;39.00;;;;;;5071139;27;89513;-71
2022/03/22 00:34:02;;;;;;;9.07;5.50;;;21.20;39.00;;;;;;5070220;27;88963;-72
2022/03/22 00:36:32;;;;;;;7.00;4.57;;;21.20;39.10;;;;;;5077387;27;89156;-71
2022/03/22 00:39:02;;;;;;;8.83;5.60;;;21.20;39.00;;;;;;5064692;27;88522;-71
2022/03/22 00:41:30;;;;;;;11.70;4.67;;;21.20;39.10;;;;;;5061835;27;90697;-72
2022/03/22 00:43:59;;;;;;;7.50;5.00;;;21.20;39.10;;;;;;5061310;27;91140;-72
2022/03/22 00:46:27;;;;;;;7.60;4.63;;;21.20;39.10;;;;;;5072615;27;88463;-72
2022/03/22 00:48:58;;;;;;;7.23;4.20;;;21.20;39.10;;;;;;5067657;27;88452;-72
2022/03/22 00:51:27;;;;;;;9.93;5.73;;;21.10;39.00;;;;;;5071461;27;90393;-72
2022/03/22 00:53:59;;;;;;;7.43;4.40;;;21.20;39.10;;;;;;5076269;27;89573;-72
2022/03/22 00:56:28;;;;;;;8.00;4.77;;;21.10;39.10;;;;;;5070094;27;88587;-72
2022/03/22 01:01:38;;;;;;;6.37;4.10;;;21.10;39.10;;;;;;5062537;27;89595;-72
2022/03/22 01:04:06;;;;;;;5.63;4.10;;;21.10;39.10;;;;;;5062795;27;93335;-72
2022/03/22 01:06:35;;;;;;;7.07;3.90;;;21.10;39.10;;;;;;5061626;27;88949;-72
2022/03/22 01:09:04;;;;;;;7.37;4.73;;;21.10;39.10;;;;;;5071905;27;88486;-71
2022/03/22 01:11:32;;;;;;;7.33;5.07;;;21.10;39.10;;;;;;5060891;27;91068;-72
2022/03/22 01:14:00;;;;;;;8.47;4.83;;;21.10;39.10;;;;;;5075706;27;93673;-72
2022/03/22 01:16:28;;;;;;;7.93;4.53;;;21.10;39.10;;;;;;5071486;27;90347;-72
2022/03/22 01:18:57;;;;;;;7.50;5.13;;;21.10;39.10;;;;;;5081683;27;88449;-71
2022/03/22 01:21:25;;;;;;;4.67;3.70;;;21.10;39.10;;;;;;5080708;27;89748;-72
2022/03/22 01:23:53;;;;;;;8.50;5.03;;;21.10;39.10;;;;;;5079607;27;88985;-72
2022/03/22 01:26:23;;;;;;;8.27;4.63;;;21.10;39.10;;;;;;5080208;27;92134;-72
2022/03/22 01:28:51;;;;;;;8.10;4.57;;;21.10;39.10;;;;;;5070933;27;88587;-72
2022/03/22 01:31:20;;;;;;;5.90;4.17;;;21.00;39.10;;;;;;5062534;27;91809;-73
2022/03/22 01:33:48;;;;;;;7.30;4.27;;;21.00;39.10;;;;;;5075443;27;89072;-72
2022/03/22 01:36:17;;;;;;;8.10;4.23;;;21.00;39.10;;;;;;5080521;27;88804;-71
2022/03/22 01:38:46;;;;;;;9.13;4.50;;;21.00;39.10;;;;;;5062677;27;88639;-72
2022/03/22 01:41:14;;;;;;;8.53;5.03;;;21.00;39.20;;;;;;5061906;27;90597;-71
2022/03/22 01:43:44;;;;;;;9.27;4.80;;;21.00;39.20;;;;;;5059829;27;88562;-71
2022/03/22 01:46:12;;;;;;;7.47;4.78;;;20.90;39.10;;;;;;5065962;27;88431;-69
2022/03/22 01:48:42;;;;;;;7.27;4.63;;;20.90;39.10;;;;;;5066685;27;88955;-73
2022/03/22 01:51:11;;;;;;;8.50;5.77;;;20.90;39.20;;;;;;5081703;27;91809;-71
2022/03/22 01:53:40;;;;;;;6.83;4.90;;;21.00;39.30;;;;;;5081353;27;88989;-71
2022/03/22 01:56:08;;;;;;;6.93;4.60;;;20.90;39.20;;;;;;5081111;27;92168;-72
2022/03/22 01:58:36;;;;;;;9.50;4.63;;;20.90;39.30;;;;;;5080392;27;88773;-72
2022/03/22 02:06:37;;;;;;;8.23;4.87;;;20.90;39.40;;;;;;5066217;27;88482;-72
2022/03/22 02:09:05;;;;;;;7.17;5.17;;;20.90;39.40;;;;;;5061462;27;88563;-72
2022/03/22 02:11:34;;;;;;;7.77;5.23;;;20.90;39.40;;;;;;5062124;27;90153;-72
2022/03/22 02:14:02;;;;;;;9.03;4.60;;;20.90;39.40;;;;;;5060297;27;93424;-72
2022/03/22 02:16:32;;;;;;;5.80;4.00;;;20.90;39.50;;;;;;5060258;27;88593;-72
2022/03/22 02:19:00;;;;;;;7.97;4.83;;;20.80;39.50;;;;;;5061272;27;88425;-72
2022/03/22 02:21:31;;;;;;;8.30;4.87;;;20.90;39.60;;;;;;5080020;27;91462;-72
2022/03/22 02:24:00;;;;;;;5.77;4.13;;;20.80;39.50;;;;;;5062753;27;89844;-72
2022/03/22 02:26:29;;;;;;;8.13;4.67;;;20.80;39.50;;;;;;5061093;27;88441;-72
2022/03/22 02:28:57;;;;;;;7.27;5.23;;;20.80;39.50;;;;;;5060891;27;88417;-72
2022/03/22 02:31:27;;;;;;;7.27;4.73;;;20.80;39.50;;;;;;5066961;27;89610;-72
2022/03/22 02:33:56;;;;;;;7.23;4.67;;;20.80;39.50;;;;;;5069248;27;89310;-72
2022/03/22 02:36:24;;;;;;;8.07;5.03;;;20.80;39.50;;;;;;5080315;27;88644;-72
2022/03/22 02:38:53;;;;;;;7.53;4.83;;;20.80;39.50;;;;;;5079887;27;88614;-71
2022/03/22 02:41:24;;;;;;;6.67;4.70;;;20.80;39.50;;;;;;5080591;27;89259;-72
2022/03/22 02:43:53;;;;;;;6.03;4.50;;;20.80;39.50;;;;;;5077020;27;90871;-72
2022/03/22 02:46:22;;;;;;;6.80;4.40;;;20.80;39.50;;;;;;5072901;27;88550;-72
2022/03/22 02:48:51;;;;;;;6.53;4.53;;;20.80;39.50;;;;;;5080790;27;88370;-72
2022/03/22 02:51:20;;;;;;;5.77;4.53;;;20.80;39.60;;;;;;5080379;27;91433;-72
2022/03/22 02:53:48;;;;;;;6.10;4.10;;;20.80;39.60;;;;;;5076530;27;89001;-71
2022/03/22 02:56:16;;;;;;;9.40;5.95;;;20.80;39.60;;;;;;5067645;27;90636;-71
2022/03/22 02:58:46;;;;;;;10.13;6.13;;;20.50;39.90;;;;;;5075756;27;88725;-71
2022/03/22 03:01:17;;;;;;;9.27;6.00;;;20.80;39.80;;;;;;5074298;27;92611;-71
2022/03/22 03:03:47;;;;;;;9.53;4.90;;;20.90;39.60;;;;;;5076462;27;88887;-71
2022/03/22 03:06:15;;;;;;;10.93;5.67;;;20.90;39.60;;;;;;5071202;27;88518;-71
2022/03/22 03:08:43;;;;;;;6.17;4.83;;;20.90;39.60;;;;;;5059687;27;88900;-71
2022/03/22 03:11:12;;;;;;;7.83;4.60;;;20.80;39.60;;;;;;5059438;27;90717;-71
2022/03/22 03:16:27;;;;;;;5.57;3.97;;;20.80;39.70;;;;;;5077901;27;89040;-71
2022/03/22 03:18:55;;;;;;;7.60;5.17;;;20.70;39.70;;;;;;5079951;27;88472;-71
2022/03/22 03:21:23;;;;;;;6.73;4.97;;;20.70;39.80;;;;;;5060713;27;89571;-71
2022/03/22 03:23:52;;;;;;;7.60;4.87;;;20.70;39.80;;;;;;5067993;27;91774;-70
2022/03/22 03:26:20;;;;;;;8.90;4.43;;;20.70;39.90;;;;;;5077785;27;88508;-71
2022/03/22 03:28:48;;;;;;;6.70;4.80;;;20.70;39.90;;;;;;5079115;27;88595;-71
2022/03/22 03:31:16;;;;;;;7.60;5.07;;;20.60;39.80;;;;;;5071897;27;90773;-71
2022/03/22 03:33:46;;;;;;;7.00;5.13;;;20.70;39.90;;;;;;5079107;27;89085;-71
2022/03/22 03:36:14;;;;;;;8.77;5.17;;;20.60;39.90;;;;;;5077071;27;88762;-71
2022/03/22 03:38:42;;;;;;;8.17;5.20;;;20.60;39.80;;;;;;5076924;27;88659;-71
2022/03/22 03:43:57;;;;;;;9.50;5.03;;;20.60;40.50;;;;;;5068115;27;92583;-71
2022/03/22 03:49:12;;;;;;;6.13;4.50;;;20.60;39.90;;;;;;5079916;27;88527;-71
2022/03/22 03:51:40;;;;;;;5.80;4.20;;;20.60;40.00;;;;;;5066263;27;89448;-72
2022/03/22 03:54:08;;;;;;;8.20;4.80;;;20.60;40.00;;;;;;5069143;27;89444;-72
2022/03/22 03:56:37;;;;;;;5.90;4.33;;;20.60;40.00;;;;;;5079312;27;89779;-70
2022/03/22 03:59:05;;;;;;;6.73;4.30;;;20.50;40.00;;;;;;5078716;27;88821;-72
2022/03/22 04:01:33;;;;;;;7.57;4.87;;;20.50;40.00;;;;;;5076540;27;89693;-72
2022/03/22 04:04:03;;;;;;;7.27;4.73;;;20.50;40.00;;;;;;5068456;27;90149;-72
2022/03/22 04:06:33;;;;;;;7.53;4.57;;;20.50;40.00;;;;;;5068245;27;89853;-66
2022/03/22 04:09:01;;;;;;;5.53;4.47;;;20.50;40.10;;;;;;5062220;27;88625;-66
2022/03/22 04:11:29;;;;;;;6.80;4.00;;;20.50;40.10;;;;;;5059199;27;90056;-65
2022/03/22 04:13:58;;;;;;;8.33;4.83;;;20.50;40.20;;;;;;5071039;27;89543;-66
2022/03/22 04:16:26;;;;;;;6.13;4.37;;;20.50;40.90;;;;;;5082324;27;88401;-66
2022/03/22 04:18:54;;;;;;;6.30;4.10;;;20.50;40.30;;;;;;5081171;27;88472;-66
2022/03/22 04:21:23;;;;;;;8.67;4.27;;;20.50;40.30;;;;;;5080669;27;89693;-65
2022/03/22 04:23:52;;;;;;;6.73;5.03;;;20.50;40.40;;;;;;5069632;27;90311;-65
2022/03/22 04:26:20;;;;;;;7.40;4.83;;;20.50;40.40;;;;;;5062677;27;90335;-65
2022/03/22 04:34:25;;;;;;;5.67;4.10;;;20.50;40.50;;;;;;5066507;27;90006;-66
2022/03/22 04:36:57;;;;;;;6.90;4.50;;;20.50;40.50;;;;;;5072496;27;88644;-65
2022/03/22 04:39:26;;;;;;;6.10;4.20;;;20.50;40.60;;;;;;5062740;27;88701;-66
2022/03/22 04:41:55;;;;;;;6.33;4.13;;;20.40;40.50;;;;;;5073942;27;90207;-66
2022/03/22 04:44:24;;;;;;;5.47;4.00;;;20.40;40.50;;;;;;5080558;27;89544;-65
2022/03/22 04:46:52;;;;;;;9.50;4.97;;;20.40;40.50;;;;;;5082300;27;89843;-65
2022/03/22 04:49:21;;;;;;;7.33;4.77;;;20.40;40.50;;;;;;5082827;27;88531;-64
2022/03/22 04:57:22;;;;;;;6.67;4.20;;;20.40;40.60;;;;;;5060920;27;88697;-66
2022/03/22 04:59:50;;;;;;;8.37;4.30;;;20.40;40.60;;;;;;5062405;27;88423;-64
2022/03/22 05:02:19;;;;;;;8.17;4.53;;;20.40;40.60;;;;;;5062928;27;90022;-64
2022/03/22 05:04:47;;;;;;;6.43;4.03;;;20.40;40.60;;;;;;5071166;27;88926;-63
2022/03/22 05:07:15;;;;;;;4.93;4.00;;;20.40;40.70;;;;;;5061338;27;88429;-64
2022/03/22 05:09:44;;;;;;;8.50;4.00;;;20.40;40.70;;;;;;5060735;27;88440;-64
2022/03/22 05:12:14;;;;;;;6.20;4.47;;;20.40;40.70;;;;;;5060991;27;90201;-64
2022/03/22 05:14:43;;;;;;;6.50;4.30;;;20.40;40.70;;;;;;5077410;27;90016;-64
2022/03/22 05:17:12;;;;;;;6.77;4.30;;;20.40;40.70;;;;;;5081691;27;88465;-64
2022/03/22 05:19:40;;;;;;;6.07;4.00;;;20.40;40.70;;;;;;5080272;27;88458;-69
2022/03/22 05:22:08;;;;;;;9.10;4.10;;;20.40;40.80;;;;;;5063713;27;89604;-70
2022/03/22 05:24:36;;;;;;;5.97;4.43;;;20.40;40.80;;;;;;5077106;27;90273;-69
2022/03/22 05:27:06;;;;;;;4.80;3.67;;;20.40;40.80;;;;;;5067569;27;88845;-69
2022/03/22 05:29:34;;;;;;;6.10;3.93;;;20.40;40.80;;;;;;5062580;27;88502;-70
2022/03/22 05:32:03;;;;;;;7.60;4.70;;;20.40;40.80;;;;;;5060664;27;89546;-70
2022/03/22 05:34:31;;;;;;;7.27;4.40;;;20.40;40.80;;;;;;5075181;27;88978;-70
2022/03/22 05:36:59;;;;;;;6.73;3.90;;;20.40;40.80;;;;;;5069153;27;88669;-70
2022/03/22 05:39:27;;;;;;;6.40;4.20;;;20.40;40.80;;;;;;5068278;27;90236;-70
2022/03/22 05:41:56;;;;;;;10.13;5.07;;;20.40;40.90;;;;;;5081019;27;90708;-70
2022/03/22 05:44:26;;;;;;;6.80;4.03;;;20.30;40.80;;;;;;5067281;27;90108;-69
2022/03/22 05:46:58;;;;;;;4.80;4.30;;;20.30;40.80;;;;;;5060976;27;89892;-70
2022/03/22 05:49:26;;;;;;;5.63;4.43;;;20.30;40.80;;;;;;5060969;27;88479;-70
2022/03/22 05:51:54;;;;;;;7.17;4.80;;;20.30;40.80;;;;;;5060987;27;90563;-70
2022/03/22 05:54:22;;;;;;;5.63;4.13;;;20.30;40.80;;;;;;5067188;27;88912;-70
2022/03/22 05:56:50;;;;;;;8.70;4.63;;;20.30;40.80;;;;;;5065216;27;88901;-70
2022/03/22 05:59:19;;;;;;;4.83;3.87;;;20.30;40.80;;;;;;5061107;27;88605;-68
2022/03/22 06:01:48;;;;;;;6.20;4.27;;;20.30;40.90;;;;;;5060542;27;89661;-69
2022/03/22 06:04:16;;;;;;;8.67;4.27;;;20.30;40.90;;;;;;5060856;27;90125;-69
2022/03/22 06:06:45;;;;;;;6.40;4.80;;;20.30;40.90;;;;;;5073946;27;89786;-69
2022/03/22 06:09:13;;;;;;;5.67;4.17;;;20.30;40.90;;;;;;5081396;27;88443;-70
2022/03/22 06:11:41;;;;;;;5.80;4.40;;;20.30;40.90;;;;;;5077805;27;89505;-70
2022/03/22 06:14:09;;;;;;;6.20;3.73;;;20.30;40.90;;;;;;5080512;27;89212;-70
2022/03/22 06:16:37;;;;;;;6.33;4.20;;;20.30;40.90;;;;;;5070101;27;91307;-72
2022/03/22 06:19:07;;;;;;;7.47;4.30;;;20.30;40.90;;;;;;5066279;27;88430;-71
2022/03/22 06:21:35;;;;;;;5.73;3.80;;;20.30;40.90;;;;;;5077809;27;89560;-71
2022/03/22 06:24:03;;;;;;;7.03;4.90;;;20.30;40.80;;;;;;5060254;27;88777;-71
2022/03/22 06:26:31;;;;;;;8.13;5.73;;;20.30;40.80;;;;;;5060192;27;89788;-70
2022/03/22 06:29:00;;;;;;;8.70;4.17;;;20.30;40.80;;;;;;5071146;27;88407;-71
2022/03/22 06:31:28;;;;;;;6.30;4.17;;;20.40;40.80;;;;;;5075603;27;89979;-72
2022/03/22 06:33:57;;;;;;;8.50;4.70;;;20.40;40.90;;;;;;5079084;27;89091;-70
2022/03/22 06:36:27;;;;;;;7.10;4.57;;;20.40;40.90;;;;;;5080705;27;91944;-70
2022/03/22 06:38:55;;;;;;;9.23;5.13;;;20.40;40.90;;;;;;5080922;27;88472;-70
2022/03/22 06:41:23;;;;;;;5.67;4.27;;;20.40;40.90;;;;;;5081110;27;88353;-71
2022/03/22 06:43:51;;;;;;;8.40;5.07;;;20.40;41.00;;;;;;5079638;27;89028;-71
2022/03/22 06:46:22;;;;;;;9.13;5.00;;;20.40;41.10;;;;;;5079711;27;88334;-71
2022/03/22 06:48:51;;;;;;;6.87;4.57;;;20.40;41.30;;;;;;5080231;27;88369;-71
2022/03/22 06:51:25;;;;;;;9.77;4.90;;;20.40;41.40;;;;;;5080580;27;90611;-70
2022/03/22 06:53:54;;;;;;;7.50;4.87;;;20.50;42.40;;;;;;5079797;27;89125;-72
2022/03/22 06:56:24;;;;;;;8.13;4.60;;;20.40;41.90;;;;;;5079743;27;88353;-71
2022/03/22 06:58:52;;;;;;;8.53;5.13;;;20.50;42.10;;;;;;5079676;27;88611;-73
2022/03/22 07:01:21;;;;;;;6.07;4.63;;;20.50;42.40;;;;;;5066424;27;89543;-72
2022/03/22 07:03:49;;;;;;;7.27;4.27;;;20.60;42.50;;;;;;5060552;27;88895;-72
2022/03/22 07:06:18;;;;;;;10.63;5.03;;;20.60;42.60;;;;;;5072743;27;89964;-71
2022/03/22 07:08:47;;;;;;;6.97;4.93;;;20.50;42.70;;;;;;5077742;27;88596;-72
2022/03/22 07:14:03;;;;;;;8.27;5.03;;;20.60;43.10;;;;;;5075327;27;89464;-72
2022/03/22 07:16:31;;;;;;;6.47;4.40;;;20.60;43.10;;;;;;5068694;27;90300;-72
2022/03/22 07:18:59;;;;;;;9.87;4.57;;;20.60;43.20;;;;;;5079021;27;88667;-72
2022/03/22 07:21:28;;;;;;;6.97;4.93;;;20.60;43.30;;;;;;5076320;27;91034;-72
2022/03/22 07:23:56;;;;;;;5.43;4.40;;;20.60;43.40;;;;;;5063959;27;90072;-72
2022/03/22 07:26:27;;;;;;;8.07;4.33;;;20.60;43.40;;;;;;5079670;27;89243;-72
2022/03/22 07:28:56;;;;;;;9.97;5.60;;;20.60;43.50;;;;;;5078185;27;89506;-72
2022/03/22 07:31:24;;;;;;;6.57;4.60;;;20.60;43.50;;;;;;5072298;27;91711;-72
2022/03/22 07:33:52;;;;;;;5.97;4.47;;;20.60;43.50;;;;;;5075726;27;92602;-72
2022/03/22 07:36:20;;;;;;;5.67;3.87;;;20.70;43.60;;;;;;5074520;27;88938;-71
2022/03/22 07:39:08;;;;;;;6.00;4.37;;;20.70;43.60;;;;;;5076532;27;88711;-72
2022/03/22 07:41:39;;;;;;;7.93;4.60;;;20.70;43.60;;;;;;5075543;27;89965;-72
2022/03/22 07:44:07;;;;;;;6.13;4.20;;;20.70;43.60;;;;;;5076000;27;89442;-72
2022/03/22 07:46:35;;;;;;;6.37;4.27;;;20.70;43.60;;;;;;5079879;27;88397;-72
2022/03/22 07:54:31;;;;;;;6.47;4.40;;;20.70;43.60;;;;;;5065072;27;89510;-72
2022/03/22 07:57:01;;;;;;;6.43;4.10;;;20.70;43.60;;;;;;5083690;27;88959;-74
2022/03/22 07:59:29;;;;;;;4.80;4.03;;;20.70;43.60;;;;;;5077904;27;88735;-74
2022/03/22 08:01:57;;;;;;;6.63;4.83;;;20.70;43.60;;;;;;5080909;27;92481;-74
2022/03/22 08:04:26;;;;;;;6.73;4.10;;;20.70;43.60;;;;;;5079877;27;90197;-73
2022/03/22 08:06:55;;;;;;;4.10;3.57;;;20.70;43.70;;;;;;5078846;27;88670;-74
2022/03/22 08:09:24;;;;;;;4.60;4.00;;;20.70;43.70;;;;;;5083375;27;88710;-73
2022/03/22 08:11:52;;;;;;;5.23;3.87;;;20.70;43.80;;;;;;5068034;27;91209;-74
2022/03/22 08:14:22;;;;;;;10.13;4.13;;;20.70;43.80;;;;;;5074936;27;89052;-74
2022/03/22 08:16:50;;;;;;;5.73;3.67;;;20.70;43.90;;;;;;5074333;27;88907;-74
2022/03/22 08:19:18;;;;;;;5.23;4.03;;;20.70;43.90;;;;;;5071266;27;89422;-73
2022/03/22 08:21:48;;;;;;;6.60;4.27;;;20.70;43.90;;;;;;5078994;27;91517;-73
2022/03/22 08:24:17;;;;;;;14.27;3.90;;;20.70;44.00;;;;;;5074362;27;89383;-74
2022/03/22 08:26:45;;;;;;;5.13;3.70;;;20.70;44.10;;;;;;5080327;27;89470;-74
2022/03/22 08:29:13;;;;;;;4.23;3.43;;;20.70;44.10;;;;;;5078335;27;88940;-73
2022/03/22 08:31:52;;;;;;;6.73;4.03;;;20.70;44.10;;;;;;5080642;27;89496;-75
2022/03/22 08:34:23;;;;;;;4.70;3.63;;;20.70;44.10;;;;;;5081616;27;90056;-74
2022/03/22 08:36:54;;;;;;;5.57;3.10;;;20.70;44.20;;;;;;5081707;27;88827;-73
2022/03/22 08:39:23;;;;;;;6.23;3.87;;;20.70;44.20;;;;;;5078835;27;88461;-74
2022/03/22 08:41:52;;;;;;;5.63;3.50;;;20.70;44.20;;;;;;5072369;27;89726;-74
2022/03/22 08:44:21;;;;;;;5.53;3.80;;;20.80;44.20;;;;;;5080480;27;90142;-73
2022/03/22 08:46:52;;;;;;;5.70;4.00;;;20.80;44.20;;;;;;5086098;27;91062;-74
2022/03/22 08:49:20;;;;;;;7.47;3.30;;;20.80;44.20;;;;;;5066843;27;89348;-73
2022/03/22 08:51:50;;;;;;;4.23;3.53;;;20.80;44.20;;;;;;5079867;27;90119;-74
2022/03/22 08:54:19;;;;;;;6.30;3.63;;;20.80;44.20;;;;;;5079892;27;89167;-74
2022/03/22 08:56:47;;;;;;;6.50;3.40;;;20.80;44.20;;;;;;5075309;27;92655;-74
2022/03/22 08:59:15;;;;;;;4.17;3.53;;;20.90;44.30;;;;;;5081784;27;88604;-73
2022/03/22 09:01:44;;;;;;;5.03;3.50;;;20.90;44.80;;;;;;5071083;27;90702;-73
2022/03/22 09:07:00;;;;;;;7.03;3.27;;;20.90;44.20;;;;;;5072793;27;91474;-73
2022/03/22 09:09:30;;;;;;;3.53;2.83;;;20.90;44.20;;;;;;5073606;27;88918;-73
2022/03/22 09:11:59;;;;;;;5.20;3.40;;;20.90;44.20;;;;;;5072925;27;90601;-74
2022/03/22 09:14:28;;;;;;;4.77;3.60;;;20.90;44.20;;;;;;5079026;27;91300;-73
2022/03/22 09:16:56;;;;;;;4.53;3.60;;;20.90;44.20;;;;;;5068488;27;89109;-73
2022/03/22 09:19:26;;;;;;;4.33;3.13;;;20.90;44.20;;;;;;5080626;27;88495;-74
2022/03/22 09:22:15;;;;;;;3.70;3.00;;;20.90;44.20;;;;;;5072432;27;89298;-74
2022/03/22 09:24:43;;;;;;;4.67;3.57;;;20.90;44.20;;;;;;5072989;27;89127;-73
2022/03/22 09:27:11;;;;;;;5.43;3.57;;;20.90;44.20;;;;;;5074972;27;88485;-73
2022/03/22 09:29:40;;;;;;;5.03;3.67;;;20.90;44.20;;;;;;5082271;27;89841;-73
2022/03/22 09:32:09;;;;;;;5.27;3.63;;;20.90;44.30;;;;;;5077869;27;91537;-73
2022/03/22 09:34:40;;;;;;;4.90;3.07;;;20.90;44.30;;;;;;5068431;27;90249;-73
2022/03/22 09:37:08;;;;;;;7.27;4.17;;;20.90;44.40;;;;;;5081446;27;90424;-73
2022/03/22 09:39:37;;;;;;;3.60;2.97;;;21.00;44.40;;;;;;5092139;27;88759;-73
2022/03/22 09:42:07;;;;;;;3.33;2.40;;;21.00;44.40;;;;;;5073145;27;90936;-74
2022/03/22 09:44:35;;;;;;;4.67;2.87;;;21.10;44.50;;;;;;5078364;27;90860;-74
2022/03/22 09:47:04;;;;;;;6.30;3.50;;;21.30;44.50;;;;;;5079475;27;92139;-74
2022/03/22 09:49:32;;;;;;;2.90;2.60;;;21.40;44.40;;;;;;5079355;27;89282;-74
2022/03/22 09:52:02;;;;;;;5.17;2.73;;;21.60;44.40;;;;;;5081064;27;90632;-73
2022/03/22 09:54:31;;;;;;;3.53;2.77;;;21.80;44.40;;;;;;5078969;27;90193;-74
2022/03/22 09:57:04;;;;;;;3.17;2.50;;;22.00;44.30;;;;;;5079953;27;88662;-74
2022/03/22 09:59:36;;;;;;;5.13;2.47;;;22.20;44.20;;;;;;5080975;27;88664;-73
2022/03/22 10:02:05;;;;;;;4.57;2.60;;;22.40;44.10;;;;;;5080953;27;92828;-73
2022/03/22 10:04:37;;;;;;;2.87;2.60;;;22.60;44.10;;;;;;5082251;27;88376;-73
2022/03/22 10:07:07;;;;;;;6.57;2.83;;;22.70;43.90;;;;;;5074713;27;88495;-74
2022/03/22 10:09:39;;;;;;;6.13;3.30;;;22.90;43.80;;;;;;5077844;27;88690;-74
2022/03/22 10:12:10;;;;;;;3.10;2.80;;;23.00;43.70;;;;;;5076517;27;89929;-73
2022/03/22 10:14:40;;;;;;;4.23;2.93;;;23.10;43.60;;;;;;5078411;27;88782;-74
2022/03/22 10:17:13;;;;;;;5.47;3.13;;;23.30;43.60;;;;;;5077491;27;88332;-74
2022/03/22 10:19:43;;;;;;;3.30;2.80;;;23.40;43.40;;;;;;5081366;27;88711;-75
2022/03/22 10:22:12;;;;;;;4.03;2.83;;;23.50;43.40;;;;;;5071905;27;93301;-73
2022/03/22 10:24:45;;;;;;;3.10;2.63;;;23.50;43.30;;;;;;5080431;27;88550;-74
2022/03/22 10:27:22;;;;;;;5.03;3.00;;;23.60;43.20;;;;;;5079372;27;88828;-75
2022/03/22 10:30:04;;;;;;;4.53;2.73;;;23.60;43.20;;;;;;5076244;27;88625;-74
2022/03/22 10:32:33;;;;;;;4.77;2.70;;;23.60;43.10;;;;;;5076703;27;88696;-74
2022/03/22 10:35:11;;;;;;;4.60;2.73;;;23.70;43.20;;;;;;5068549;27;89533;-75
2022/03/22 10:37:42;;;;;;;6.00;3.07;;;23.80;43.20;;;;;;5076117;27;88670;-74
2022/03/22 10:40:21;;;;;;;3.53;2.40;;;23.90;43.10;;;;;;5076883;27;88895;-75
2022/03/22 10:42:49;;;;;;;7.03;2.63;;;24.00;43.10;;;;;;5081683;27;92998;-74
2022/03/22 10:45:18;;;;;;;3.53;2.37;;;24.10;42.90;;;;;;5078808;27;89011;-75
2022/03/22 10:47:46;;;;;;;3.87;2.50;;;24.20;42.90;;;;;;5079784;27;88874;-75
2022/03/22 10:50:14;;;;;;;4.13;2.67;;;24.30;42.90;;;;;;5080002;27;88746;-75
2022/03/22 10:52:54;;;;;;;5.53;2.13;;;24.40;42.80;;;;;;5070703;27;88959;-75
2022/03/22 10:55:23;;;;;;;3.97;2.43;;;24.40;42.80;;;;;;5059888;27;90240;-75
2022/03/22 10:57:52;;;;;;;3.40;2.33;;;24.40;42.70;;;;;;5059526;27;88983;-74
2022/03/22 11:00:22;;;;;;;2.77;2.23;;;24.40;42.60;;;;;;5069038;27;88590;-74
2022/03/22 11:02:52;;;;;;;2.83;2.20;;;24.50;42.70;;;;;;5071053;27;89320;-75
2022/03/22 11:05:21;;;;;;;3.37;2.50;;;24.60;42.70;;;;;;5059747;27;92352;-74
2022/03/22 11:07:51;;;;;;;6.30;2.90;;;24.60;42.60;;;;;;5074604;27;88420;-75
2022/03/22 11:10:25;;;;;;;3.57;2.37;;;24.70;42.60;;;;;;5075988;27;88637;-75
2022/03/22 11:12:53;;;;;;;3.50;2.60;;;24.80;42.50;;;;;;5069992;27;89362;-74
2022/03/22 11:15:21;;;;;;;5.83;3.00;;;24.90;42.40;;;;;;5076576;27;92257;-74
2022/03/22 11:17:51;;;;;;;6.53;2.83;;;25.00;42.40;;;;;;5073042;27;89384;-75
2022/03/22 11:20:19;;;;;;;3.37;2.67;;;25.10;42.30;;;;;;5073953;27;88636;-75
2022/03/22 11:22:51;;;;;;;4.30;2.70;;;25.20;42.20;;;;;;5070610;27;93334;-74
2022/03/22 11:25:24;;;;;;;3.20;2.50;;;25.20;42.10;;;;;;5075143;27;90186;-74
2022/03/22 11:27:58;;;;;;;2.97;2.27;;;25.30;42.10;;;;;;5068496;27;88859;-74
2022/03/22 11:30:28;;;;;;;3.30;2.40;;;25.30;42.00;;;;;;5072110;27;88727;-75
2022/03/22 11:35:46;;;;;;;4.73;2.70;;;25.30;42.00;;;;;;5069882;27;88414;-76
2022/03/22 11:38:35;;;;;;;2.97;2.37;;;25.40;42.00;;;;;;5074532;27;88490;-74
2022/03/22 11:43:50;;;;;;;3.03;2.30;;;25.50;41.90;;;;;;5063832;27;90568;-75
2022/03/22 11:46:18;;;;;;;3.90;2.40;;;25.60;41.80;;;;;;5058094;27;88737;-75
2022/03/22 11:48:51;;;;;;;3.07;2.23;;;25.70;41.80;;;;;;5067060;27;88907;-75
2022/03/22 11:51:26;;;;;;;4.03;2.47;;;25.80;41.70;;;;;;5073163;27;90231;-75
2022/03/22 11:53:59;;;;;;;3.50;2.67;;;25.90;41.60;;;;;;5068691;27;89409;-75
2022/03/22 11:56:27;;;;;;;3.47;2.20;;;26.00;41.60;;;;;;5073609;27;91755;-75
2022/03/22 11:58:55;;;;;;;3.37;2.50;;;26.10;41.60;;;;;;5058606;27;88463;-75
2022/03/22 12:01:34;;;;;;;3.60;2.40;;;26.10;41.40;;;;;;5065178;27;88822;-74
2022/03/22 12:04:05;;;;;;;6.03;2.57;;;26.20;41.40;;;;;;5074913;27;89436;-75
2022/03/22 12:06:33;;;;;;;5.67;2.57;;;26.20;42.00;;;;;;5077795;27;88944;-75
2022/03/22 12:09:05;;;;;;;3.30;2.50;;;26.20;41.30;;;;;;5075286;27;89078;-74
2022/03/22 12:11:35;;;;;;;2.90;2.20;;;26.10;41.20;;;;;;5062030;27;89333;-75
2022/03/22 12:14:04;;;;;;;3.77;2.57;;;26.10;41.20;;;;;;5069364;27;91765;-75
2022/03/22 12:16:32;;;;;;;5.27;2.70;;;26.10;41.90;;;;;;5059279;27;89373;-75
2022/03/22 12:19:01;;;;;;;3.47;2.43;;;26.00;41.20;;;;;;5060265;27;91409;-76
2022/03/22 12:21:31;;;;;;;2.80;2.43;;;26.00;41.40;;;;;;5058973;27;88841;-75
2022/03/22 12:23:59;;;;;;;2.97;2.40;;;26.00;41.40;;;;;;5060586;27;92752;-75
2022/03/22 12:26:28;;;;;;;3.07;2.20;;;25.90;41.40;;;;;;5068943;27;92996;-75
2022/03/22 12:28:56;;;;;;;2.17;1.80;;;25.90;41.40;;;;;;5075816;27;88587;-76
2022/03/22 12:31:25;;;;;;;3.53;2.20;;;25.80;41.40;;;;;;5072976;27;88538;-75
2022/03/22 12:33:58;;;;;;;2.87;1.97;;;25.80;41.50;;;;;;5073555;27;90965;-75
2022/03/22 12:36:27;;;;;;;2.80;2.27;;;25.70;41.50;;;;;;5067374;27;88750;-74
2022/03/22 12:38:55;;;;;;;3.17;2.03;;;25.70;41.50;;;;;;5066275;27;88829;-75
2022/03/22 12:41:24;;;;;;;3.53;2.23;;;;;;;;;;5082384;27;89000;-74
2022/03/22 12:43:54;;;;;;;3.23;2.40;;;25.60;41.10;;;;;;5082309;27;89698;-75
2022/03/22 12:46:22;;;;;;;2.63;2.37;;;25.50;41.60;;;;;;5082001;27;89329;-75
2022/03/22 12:48:52;;;;;;;4.33;2.37;;;25.60;41.60;;;;;;5082290;27;91778;-74
2022/03/22 12:51:21;;;;;;;2.80;2.33;;;25.50;41.60;;;;;;5083185;27;88328;-74
2022/03/22 12:53:49;;;;;;;2.17;1.97;;;25.50;41.60;;;;;;5072149;27;91300;-75
2022/03/22 12:56:18;;;;;;;5.80;2.30;;;25.50;41.60;;;;;;5065650;27;92054;-75
2022/03/22 12:58:46;;;;;;;3.57;2.20;;;25.40;41.60;;;;;;5075720;27;88546;-74
2022/03/22 13:01:15;;;;;;;3.60;2.57;;;25.40;41.60;;;;;;5067947;27;89540;-74
2022/03/22 13:03:45;;;;;;;4.07;2.10;;;25.40;41.70;;;;;;5076137;27;90567;-75
2022/03/22 13:06:13;;;;;;;2.53;2.20;;;25.40;41.70;;;;;;5082033;27;90158;-75
2022/03/22 13:11:29;;;;;;;2.50;2.00;;;25.30;41.60;;;;;;5062177;27;88633;-74
2022/03/22 13:16:50;;;;;;;4.63;2.00;;;25.20;41.60;;;;;;5061003;27;89200;-75
2022/03/22 13:19:19;;;;;;;2.23;1.80;;;25.30;41.70;;;;;;5061305;27;89992;-76
2022/03/22 13:21:47;;;;;;;3.77;1.97;;;25.40;41.70;;;;;;5061752;27;88558;-74
2022/03/22 13:24:21;;;;;;;3.23;2.53;;;25.50;41.70;;;;;;5061758;27;92884;-74
2022/03/22 13:26:54;;;;;;;3.57;2.10;;;25.60;41.60;;;;;;5062310;27;89802;-75
2022/03/22 13:29:22;;;;;;;3.60;2.17;;;25.70;41.50;;;;;;5061235;27;88882;-75
2022/03/22 13:31:59;;;;;;;3.63;2.50;;;25.80;41.40;;;;;;5061964;27;88372;-74
2022/03/22 13:34:29;;;;;;;3.07;2.10;;;25.90;41.30;;;;;;5060655;27;89497;-74
2022/03/22 13:37:05;;;;;;;3.50;2.00;;;25.90;41.20;;;;;;5061138;27;89726;-75
2022/03/22 13:39:33;;;;;;;3.87;2.20;;;26.00;41.20;;;;;;5061886;27;88455;-75
2022/03/22 13:42:08;;;;;;;3.73;1.70;;;26.10;41.20;;;;;;5060958;27;88478;-74
2022/03/22 13:44:43;;;;;;;3.43;2.37;;;26.00;41.10;;;;;;5059958;27;89940;-74
2022/03/22 13:47:24;;;;;;;2.90;2.17;;;26.00;41.10;;;;;;5060806;27;90088;-75
2022/03/22 13:49:52;;;;;;;2.13;1.70;;;26.10;41.10;;;;;;5060758;27;88492;-75